sensor_id;sensor_type;location;lat;lon;timestamp;pressure;altitude;pressure_sealevel;temperature;humidity
61676;BME280;47574;52.090;5.244;2023-01-10T00:00:49;101108.0;;;12.26;51.94
61676;BME280;47574;52.090;5.244;2023-01-10T00:02:25;101117.0;;;12.25;51.61
61676;BME280;47574;52.090;5.244;2023-01-10T00:04:01;101128.0;;;11.94;52.82
61676;BME280;47574;52.090;5.244;2023-01-10T00:07:15;101135.0;;;12.22;52.16
61676;BME280;47574;52.090;5.244;2023-01-10T00:08:52;101140.0;;;12.09;52.45
61676;BME280;47574;52.090;5.244;2023-01-10T00:10:28;101147.0;;;12.22;52.23
61676;BME280;47574;52.090;5.244;2023-01-10T00:15:47;101155.0;;;12.03;52.68
61676;BME280;47574;52.090;5.244;2023-01-10T00:17:24;101157.0;;;12.16;52.29
61676;BME280;47574;52.090;5.244;2023-01-10T00:19:00;101160.0;;;12.1;52.36
61676;BME280;47574;52.090;5.244;2023-01-10T00:20:37;101164.0;;;12.39;51.8
61676;BME280;47574;52.090;5.244;2023-01-10T00:23:59;101165.0;;;12.14;52.36
61676;BME280;47574;52.090;5.244;2023-01-10T00:25:35;101167.0;;;12.2;52.28
61676;BME280;47574;52.090;5.244;2023-01-10T00:27:11;101170.0;;;12.48;51.67
61676;BME280;47574;52.090;5.244;2023-01-10T00:30:27;101168.0;;;12.66;51.29
61676;BME280;47574;52.090;5.244;2023-01-10T00:32:03;101173.0;;;12.36;51.95
61676;BME280;47574;52.090;5.244;2023-01-10T00:33:39;101181.0;;;12.02;52.39
61676;BME280;47574;52.090;5.244;2023-01-10T00:38:29;101180.0;;;12.34;52.21
61676;BME280;47574;52.090;5.244;2023-01-10T00:40:10;101177.0;;;12.44;52.04
61676;BME280;47574;52.090;5.244;2023-01-10T00:44:08;101181.0;;;12.77;51.3
61676;BME280;47574;52.090;5.244;2023-01-10T00:45:44;101192.0;;;12.1;52.93
61676;BME280;47574;52.090;5.244;2023-01-10T00:48:57;101194.0;;;12.34;52.89
61676;BME280;47574;52.090;5.244;2023-01-10T00:50:33;101205.0;;;12.33;52.46
61676;BME280;47574;52.090;5.244;2023-01-10T00:52:10;101207.0;;;12.27;52.83
61676;BME280;47574;52.090;5.244;2023-01-10T00:55:22;101207.0;;;12.13;53.16
61676;BME280;47574;52.090;5.244;2023-01-10T00:56:58;101215.0;;;12.21;53.29
61676;BME280;47574;52.090;5.244;2023-01-10T00:58:34;101213.0;;;12.47;52.64
61676;BME280;47574;52.090;5.244;2023-01-10T01:01:47;101212.0;;;12.52;52.62
61676;BME280;47574;52.090;5.244;2023-01-10T01:03:25;101215.0;;;12.46;52.6
61676;BME280;47574;52.090;5.244;2023-01-10T01:05:02;101211.0;;;12.87;51.64
61676;BME280;47574;52.090;5.244;2023-01-10T01:06:42;101216.0;;;12.49;52.39
61676;BME280;47574;52.090;5.244;2023-01-10T01:10:27;101217.0;;;12.34;52.73
61676;BME280;47574;52.090;5.244;2023-01-10T01:12:03;101216.0;;;12.32;52.83
61676;BME280;47574;52.090;5.244;2023-01-10T01:13:39;101217.0;;;12.3;53.31
61676;BME280;47574;52.090;5.244;2023-01-10T01:15:16;101220.0;;;12.25;53.54
61676;BME280;47574;52.090;5.244;2023-01-10T01:18:28;101222.0;;;12.47;53.09
61676;BME280;47574;52.090;5.244;2023-01-10T01:20:06;101223.0;;;12.49;53.37
61676;BME280;47574;52.090;5.244;2023-01-10T01:21:44;101230.0;;;12.04;54.41
61676;BME280;47574;52.090;5.244;2023-01-10T01:23:21;101232.0;;;12.25;54.25
61676;BME280;47574;52.090;5.244;2023-01-10T01:26:34;101239.0;;;12.38;54.41
61676;BME280;47574;52.090;5.244;2023-01-10T01:28:11;101243.0;;;12.19;55.2
61676;BME280;47574;52.090;5.244;2023-01-10T01:29:47;101240.0;;;12.27;55.49
61676;BME280;47574;52.090;5.244;2023-01-10T01:33:00;101235.0;;;12.26;55.76
61676;BME280;47574;52.090;5.244;2023-01-10T01:34:36;101238.0;;;12.18;56.31
61676;BME280;47574;52.090;5.244;2023-01-10T01:36:12;101243.0;;;12.03;56.79
61676;BME280;47574;52.090;5.244;2023-01-10T01:39:25;101252.0;;;12.13;56.8
61676;BME280;47574;52.090;5.244;2023-01-10T01:41:02;101256.0;;;12.03;57.41
61676;BME280;47574;52.090;5.244;2023-01-10T01:42:39;101256.0;;;11.95;57.8
61676;BME280;47574;52.090;5.244;2023-01-10T01:44:17;101257.0;;;12.06;57.71
61676;BME280;47574;52.090;5.244;2023-01-10T01:47:39;101258.0;;;12.07;57.56
61676;BME280;47574;52.090;5.244;2023-01-10T01:49:20;101258.0;;;12.04;57.62
61676;BME280;47574;52.090;5.244;2023-01-10T01:51:08;101257.0;;;11.92;57.99
61676;BME280;47574;52.090;5.244;2023-01-10T01:52:47;101255.0;;;12.05;57.79
61676;BME280;47574;52.090;5.244;2023-01-10T01:56:09;101257.0;;;11.93;57.94
61676;BME280;47574;52.090;5.244;2023-01-10T01:57:50;101257.0;;;11.95;58.1
61676;BME280;47574;52.090;5.244;2023-01-10T01:59:33;101266.0;;;11.89;58.28
61676;BME280;47574;52.090;5.244;2023-01-10T02:01:11;101266.0;;;11.77;58.58
61676;BME280;47574;52.090;5.244;2023-01-10T02:04:36;101266.0;;;11.91;58.26
61676;BME280;47574;52.090;5.244;2023-01-10T02:06:17;101266.0;;;11.94;58.24
61676;BME280;47574;52.090;5.244;2023-01-10T02:07:56;101270.0;;;11.79;58.39
61676;BME280;47574;52.090;5.244;2023-01-10T02:09:40;101271.0;;;11.75;58.53
61676;BME280;47574;52.090;5.244;2023-01-10T02:13:00;101272.0;;;11.81;58.34
61676;BME280;47574;52.090;5.244;2023-01-10T02:14:39;101275.0;;;11.96;58.27
61676;BME280;47574;52.090;5.244;2023-01-10T02:16:17;101275.0;;;12.19;57.82
61676;BME280;47574;52.090;5.244;2023-01-10T02:17:55;101276.0;;;11.97;58.27
61676;BME280;47574;52.090;5.244;2023-01-10T02:21:41;101278.0;;;12.27;57.44
61676;BME280;47574;52.090;5.244;2023-01-10T02:25:23;101278.0;;;12.13;58.02
61676;BME280;47574;52.090;5.244;2023-01-10T02:29:51;101285.0;;;12.15;57.93
61676;BME280;47574;52.090;5.244;2023-01-10T02:32:59;101287.0;;;12.13;57.75
61676;BME280;47574;52.090;5.244;2023-01-10T02:34:50;101286.0;;;12.07;58.14
61676;BME280;47574;52.090;5.244;2023-01-10T02:36:38;101285.0;;;12.22;57.85
61676;BME280;47574;52.090;5.244;2023-01-10T02:40:14;101289.0;;;12.33;57.68
61676;BME280;47574;52.090;5.244;2023-01-10T02:41:58;101285.0;;;12.4;57.55
61676;BME280;47574;52.090;5.244;2023-01-10T02:43:42;101285.0;;;12.1;58.18
61676;BME280;47574;52.090;5.244;2023-01-10T02:45:25;101284.0;;;12.41;57.31
61676;BME280;47574;52.090;5.244;2023-01-10T02:47:06;101291.0;;;12.56;56.83
61676;BME280;47574;52.090;5.244;2023-01-10T02:50:28;101295.0;;;12.22;57.58
61676;BME280;47574;52.090;5.244;2023-01-10T02:52:34;101300.0;;;12.23;57.53
61676;BME280;47574;52.090;5.244;2023-01-10T02:54:14;101292.0;;;12.3;57.23
61676;BME280;47574;52.090;5.244;2023-01-10T02:56:18;101298.0;;;12.37;57.14
61676;BME280;47574;52.090;5.244;2023-01-10T02:58:03;101299.0;;;12.37;56.83
61676;BME280;47574;52.090;5.244;2023-01-10T03:00:05;101301.0;;;12.41;56.82
61676;BME280;47574;52.090;5.244;2023-01-10T03:03:22;101303.0;;;12.3;56.89
61676;BME280;47574;52.090;5.244;2023-01-10T03:05:15;101311.0;;;12.43;56.54
61676;BME280;47574;52.090;5.244;2023-01-10T03:07:07;101310.0;;;12.47;56.5
61676;BME280;47574;52.090;5.244;2023-01-10T03:08:50;101308.0;;;12.31;56.61
61676;BME280;47574;52.090;5.244;2023-01-10T03:10:35;101313.0;;;12.12;56.95
61676;BME280;47574;52.090;5.244;2023-01-10T03:12:20;101319.0;;;12.36;56.47
61676;BME280;47574;52.090;5.244;2023-01-10T03:15:51;101321.0;;;12.2;56.7
61676;BME280;47574;52.090;5.244;2023-01-10T03:17:29;101330.0;;;12.1;56.84
61676;BME280;47574;52.090;5.244;2023-01-10T03:19:07;101331.0;;;12.35;56.46
61676;BME280;47574;52.090;5.244;2023-01-10T03:20:46;101332.0;;;12.47;56.23
61676;BME280;47574;52.090;5.244;2023-01-10T03:24:10;101335.0;;;12.17;56.9
61676;BME280;47574;52.090;5.244;2023-01-10T03:25:50;101334.0;;;12.61;55.67
61676;BME280;47574;52.090;5.244;2023-01-10T03:27:37;101336.0;;;12.42;56.05
61676;BME280;47574;52.090;5.244;2023-01-10T03:29:24;101335.0;;;12.66;55.31
61676;BME280;47574;52.090;5.244;2023-01-10T03:31:07;101341.0;;;12.45;55.6
61676;BME280;47574;52.090;5.244;2023-01-10T03:34:23;101342.0;;;12.26;56.12
61676;BME280;47574;52.090;5.244;2023-01-10T03:36:10;101351.0;;;12.36;55.69
61676;BME280;47574;52.090;5.244;2023-01-10T03:37:54;101355.0;;;12.62;55.22
61676;BME280;47574;52.090;5.244;2023-01-10T03:39:39;101358.0;;;12.7;55.07
61676;BME280;47574;52.090;5.244;2023-01-10T03:45:01;101365.0;;;12.65;54.93
61676;BME280;47574;52.090;5.244;2023-01-10T03:46:45;101367.0;;;12.95;54.62
61676;BME280;47574;52.090;5.244;2023-01-10T03:48:30;101366.0;;;12.45;55.61
61676;BME280;47574;52.090;5.244;2023-01-10T03:50:11;101366.0;;;12.36;55.86
61676;BME280;47574;52.090;5.244;2023-01-10T03:51:50;101372.0;;;12.36;55.89
61676;BME280;47574;52.090;5.244;2023-01-10T03:55:06;101377.0;;;12.83;54.72
61676;BME280;47574;52.090;5.244;2023-01-10T03:56:47;101380.0;;;12.67;54.98
61676;BME280;47574;52.090;5.244;2023-01-10T03:58:23;101387.0;;;12.67;54.84
61676;BME280;47574;52.090;5.244;2023-01-10T04:01:36;101391.0;;;12.75;55.12
61676;BME280;47574;52.090;5.244;2023-01-10T04:03:12;101396.0;;;12.48;55.33
61676;BME280;47574;52.090;5.244;2023-01-10T04:04:48;101399.0;;;12.72;54.9
61676;BME280;47574;52.090;5.244;2023-01-10T04:08:00;101401.0;;;12.8;54.9
61676;BME280;47574;52.090;5.244;2023-01-10T04:09:36;101401.0;;;12.44;55.42
61676;BME280;47574;52.090;5.244;2023-01-10T04:11:12;101406.0;;;12.8;54.94
61676;BME280;47574;52.090;5.244;2023-01-10T04:12:48;101406.0;;;12.85;54.7
61676;BME280;47574;52.090;5.244;2023-01-10T04:16:01;101402.0;;;12.71;55.1
61676;BME280;47574;52.090;5.244;2023-01-10T04:17:37;101409.0;;;12.83;54.96
61676;BME280;47574;52.090;5.244;2023-01-10T04:19:13;101412.0;;;12.78;54.71
61676;BME280;47574;52.090;5.244;2023-01-10T04:22:25;101415.0;;;12.68;54.79
61676;BME280;47574;52.090;5.244;2023-01-10T04:24:02;101415.0;;;12.76;54.62
61676;BME280;47574;52.090;5.244;2023-01-10T04:25:38;101421.0;;;12.79;54.59
61676;BME280;47574;52.090;5.244;2023-01-10T04:28:51;101423.0;;;12.85;54.4
61676;BME280;47574;52.090;5.244;2023-01-10T04:30:27;101424.0;;;12.91;54.29
61676;BME280;47574;52.090;5.244;2023-01-10T04:32:03;101425.0;;;12.78;54.56
61676;BME280;47574;52.090;5.244;2023-01-10T04:33:40;101430.0;;;12.78;54.62
61676;BME280;47574;52.090;5.244;2023-01-10T04:36:52;101434.0;;;12.88;54.28
61676;BME280;47574;52.090;5.244;2023-01-10T04:38:28;101433.0;;;12.77;54.58
61676;BME280;47574;52.090;5.244;2023-01-10T04:40:06;101430.0;;;12.9;54.16
61676;BME280;47574;52.090;5.244;2023-01-10T04:43:20;101431.0;;;12.79;54.32
61676;BME280;47574;52.090;5.244;2023-01-10T04:44:57;101434.0;;;12.95;54.09
61676;BME280;47574;52.090;5.244;2023-01-10T04:46:33;101436.0;;;12.8;54.35
61676;BME280;47574;52.090;5.244;2023-01-10T04:49:46;101436.0;;;12.77;54.39
61676;BME280;47574;52.090;5.244;2023-01-10T04:51:23;101439.0;;;12.75;54.37
61676;BME280;47574;52.090;5.244;2023-01-10T04:52:59;101438.0;;;12.56;54.87
61676;BME280;47574;52.090;5.244;2023-01-10T04:54:35;101441.0;;;12.76;54.47
61676;BME280;47574;52.090;5.244;2023-01-10T04:57:52;101444.0;;;12.6;54.62
61676;BME280;47574;52.090;5.244;2023-01-10T04:59:28;101448.0;;;12.75;54.33
61676;BME280;47574;52.090;5.244;2023-01-10T05:01:07;101449.0;;;12.58;54.67
61676;BME280;47574;52.090;5.244;2023-01-10T05:04:20;101446.0;;;12.75;54.31
61676;BME280;47574;52.090;5.244;2023-01-10T05:05:57;101446.0;;;12.88;53.97
61676;BME280;47574;52.090;5.244;2023-01-10T05:07:33;101445.0;;;12.89;53.9
61676;BME280;47574;52.090;5.244;2023-01-10T05:10:45;101446.0;;;12.73;54.19
61676;BME280;47574;52.090;5.244;2023-01-10T05:12:21;101450.0;;;12.72;54.44
61676;BME280;47574;52.090;5.244;2023-01-10T05:13:57;101458.0;;;12.62;54.5
61676;BME280;47574;52.090;5.244;2023-01-10T05:15:33;101460.0;;;12.76;54.55
61676;BME280;47574;52.090;5.244;2023-01-10T05:18:46;101473.0;;;12.28;55.49
61676;BME280;47574;52.090;5.244;2023-01-10T05:20:22;101477.0;;;12.12;56.15
61676;BME280;47574;52.090;5.244;2023-01-10T05:21:58;101486.0;;;12.32;55.8
61676;BME280;47574;52.090;5.244;2023-01-10T05:25:11;101483.0;;;12.32;55.65
61676;BME280;47574;52.090;5.244;2023-01-10T05:26:47;101484.0;;;12.15;56.04
61676;BME280;47574;52.090;5.244;2023-01-10T05:28:23;101494.0;;;12.21;56.05
61676;BME280;47574;52.090;5.244;2023-01-10T05:31:36;101496.0;;;12.18;56.09
61676;BME280;47574;52.090;5.244;2023-01-10T05:33:13;101495.0;;;12.22;56.13
61676;BME280;47574;52.090;5.244;2023-01-10T05:34:49;101498.0;;;12.32;56.01
61676;BME280;47574;52.090;5.244;2023-01-10T05:36:25;101499.0;;;12.12;56.23
61676;BME280;47574;52.090;5.244;2023-01-10T05:39:39;101497.0;;;12.26;55.93
61676;BME280;47574;52.090;5.244;2023-01-10T05:41:15;101505.0;;;12.11;56.12
61676;BME280;47574;52.090;5.244;2023-01-10T05:42:51;101510.0;;;12.06;56.46
61676;BME280;47574;52.090;5.244;2023-01-10T05:46:04;101510.0;;;12.07;56.37
61676;BME280;47574;52.090;5.244;2023-01-10T05:47:40;101512.0;;;11.97;56.63
61676;BME280;47574;52.090;5.244;2023-01-10T05:49:16;101514.0;;;12.06;56.67
61676;BME280;47574;52.090;5.244;2023-01-10T05:52:29;101524.0;;;12.02;56.92
61676;BME280;47574;52.090;5.244;2023-01-10T05:54:05;101528.0;;;11.9;57.29
61676;BME280;47574;52.090;5.244;2023-01-10T05:55:42;101526.0;;;12.0;57.04
61676;BME280;47574;52.090;5.244;2023-01-10T05:58:54;101521.0;;;11.98;57.24
61676;BME280;47574;52.090;5.244;2023-01-10T06:00:31;101522.0;;;11.67;57.92
61676;BME280;47574;52.090;5.244;2023-01-10T06:02:07;101522.0;;;11.76;57.86
61676;BME280;47574;52.090;5.244;2023-01-10T06:03:43;101525.0;;;11.89;57.87
61676;BME280;47574;52.090;5.244;2023-01-10T06:06:55;101532.0;;;11.73;58.03
61676;BME280;47574;52.090;5.244;2023-01-10T06:08:32;101530.0;;;11.84;58.11
61676;BME280;47574;52.090;5.244;2023-01-10T06:10:09;101526.0;;;11.74;58.11
61676;BME280;47574;52.090;5.244;2023-01-10T06:13:21;101526.0;;;11.75;58.15
61676;BME280;47574;52.090;5.244;2023-01-10T06:14:58;101532.0;;;11.78;58.22
61676;BME280;47574;52.090;5.244;2023-01-10T06:16:34;101533.0;;;12.12;57.42
61676;BME280;47574;52.090;5.244;2023-01-10T06:19:47;101538.0;;;11.8;58.2
61676;BME280;47574;52.090;5.244;2023-01-10T06:21:23;101539.0;;;11.95;57.98
61676;BME280;47574;52.090;5.244;2023-01-10T06:23:03;101540.0;;;11.91;57.96
61676;BME280;47574;52.090;5.244;2023-01-10T06:24:39;101540.0;;;12.19;57.76
61676;BME280;47574;52.090;5.244;2023-01-10T06:27:55;101542.0;;;12.22;57.57
61676;BME280;47574;52.090;5.244;2023-01-10T06:29:31;101544.0;;;12.37;57.04
61676;BME280;47574;52.090;5.244;2023-01-10T06:31:07;101553.0;;;12.08;57.88
61676;BME280;47574;52.090;5.244;2023-01-10T06:34:20;101549.0;;;12.3;57.48
61676;BME280;47574;52.090;5.244;2023-01-10T06:35:56;101555.0;;;12.15;57.79
61676;BME280;47574;52.090;5.244;2023-01-10T06:37:32;101561.0;;;12.26;57.5
61676;BME280;47574;52.090;5.244;2023-01-10T06:40:45;101564.0;;;12.3;57.39
61676;BME280;47574;52.090;5.244;2023-01-10T06:42:21;101566.0;;;12.28;57.52
61676;BME280;47574;52.090;5.244;2023-01-10T06:43:57;101565.0;;;11.98;58.25
61676;BME280;47574;52.090;5.244;2023-01-10T06:45:34;101559.0;;;11.76;58.97
61676;BME280;47574;52.090;5.244;2023-01-10T06:48:46;101563.0;;;12.2;58.07
61676;BME280;47574;52.090;5.244;2023-01-10T06:50:23;101568.0;;;12.08;58.18
61676;BME280;47574;52.090;5.244;2023-01-10T06:52:01;101564.0;;;11.77;58.93
61676;BME280;47574;52.090;5.244;2023-01-10T06:55:14;101566.0;;;12.21;57.88
61676;BME280;47574;52.090;5.244;2023-01-10T06:56:50;101580.0;;;12.25;57.93
61676;BME280;47574;52.090;5.244;2023-01-10T06:58:27;101588.0;;;12.38;57.67
61676;BME280;47574;52.090;5.244;2023-01-10T07:01:44;101594.0;;;12.25;57.78
61676;BME280;47574;52.090;5.244;2023-01-10T07:03:20;101595.0;;;12.36;57.52
61676;BME280;47574;52.090;5.244;2023-01-10T07:04:56;101595.0;;;12.24;57.89
61676;BME280;47574;52.090;5.244;2023-01-10T07:06:35;101591.0;;;12.27;57.7
61676;BME280;47574;52.090;5.244;2023-01-10T07:09:47;101586.0;;;12.39;57.39
61676;BME280;47574;52.090;5.244;2023-01-10T07:11:24;101586.0;;;12.54;57.24
61676;BME280;47574;52.090;5.244;2023-01-10T07:13:00;101590.0;;;11.95;58.31
61676;BME280;47574;52.090;5.244;2023-01-10T07:16:13;101599.0;;;12.12;58.04
61676;BME280;47574;52.090;5.244;2023-01-10T07:17:51;101600.0;;;11.78;58.76
61676;BME280;47574;52.090;5.244;2023-01-10T07:19:27;101605.0;;;12.02;58.35
61676;BME280;47574;52.090;5.244;2023-01-10T07:21:04;101606.0;;;12.2;57.76
61676;BME280;47574;52.090;5.244;2023-01-10T07:24:17;101615.0;;;11.96;58.31
61676;BME280;47574;52.090;5.244;2023-01-10T07:25:53;101626.0;;;11.61;59.19
61676;BME280;47574;52.090;5.244;2023-01-10T07:27:29;101635.0;;;11.65;58.94
61676;BME280;47574;52.090;5.244;2023-01-10T07:30:42;101635.0;;;11.63;58.93
61676;BME280;47574;52.090;5.244;2023-01-10T07:32:18;101634.0;;;11.35;59.24
61676;BME280;47574;52.090;5.244;2023-01-10T07:33:54;101639.0;;;11.33;59.4
61676;BME280;47574;52.090;5.244;2023-01-10T07:37:07;101644.0;;;11.61;58.6
61676;BME280;47574;52.090;5.244;2023-01-10T07:38:43;101652.0;;;11.23;59.15
61676;BME280;47574;52.090;5.244;2023-01-10T07:40:19;101655.0;;;11.09;59.61
61676;BME280;47574;52.090;5.244;2023-01-10T07:43:32;101651.0;;;11.12;59.33
61676;BME280;47574;52.090;5.244;2023-01-10T07:45:09;101655.0;;;10.93;59.51
61676;BME280;47574;52.090;5.244;2023-01-10T07:46:45;101650.0;;;10.91;59.44
61676;BME280;47574;52.090;5.244;2023-01-10T07:48:21;101651.0;;;10.85;59.91
61676;BME280;47574;52.090;5.244;2023-01-10T07:51:34;101660.0;;;11.32;58.72
61676;BME280;47574;52.090;5.244;2023-01-10T07:53:11;101656.0;;;11.64;57.9
61676;BME280;47574;52.090;5.244;2023-01-10T07:54:47;101664.0;;;11.9;57.2
61676;BME280;47574;52.090;5.244;2023-01-10T07:58:00;101666.0;;;11.97;56.83
61676;BME280;47574;52.090;5.244;2023-01-10T07:59:37;101660.0;;;11.82;56.79
61676;BME280;47574;52.090;5.244;2023-01-10T08:01:14;101666.0;;;11.51;57.13
61676;BME280;47574;52.090;5.244;2023-01-10T08:04:29;101669.0;;;10.87;58.59
61676;BME280;47574;52.090;5.244;2023-01-10T08:06:07;101673.0;;;10.78;59.27
61676;BME280;47574;52.090;5.244;2023-01-10T08:07:44;101675.0;;;10.93;58.54
61676;BME280;47574;52.090;5.244;2023-01-10T08:09:20;101671.0;;;11.04;58.18
61676;BME280;47574;52.090;5.244;2023-01-10T08:12:35;101663.0;;;11.15;57.96
61676;BME280;47574;52.090;5.244;2023-01-10T08:14:11;101676.0;;;11.04;58.18
61676;BME280;47574;52.090;5.244;2023-01-10T08:15:49;101680.0;;;11.08;58.18
61676;BME280;47574;52.090;5.244;2023-01-10T08:19:03;101680.0;;;10.85;58.41
61676;BME280;47574;52.090;5.244;2023-01-10T08:20:39;101686.0;;;10.72;59.06
61676;BME280;47574;52.090;5.244;2023-01-10T08:22:16;101688.0;;;11.0;58.34
61676;BME280;47574;52.090;5.244;2023-01-10T08:23:53;101684.0;;;11.18;57.93
61676;BME280;47574;52.090;5.244;2023-01-10T08:27:05;101693.0;;;10.98;58.41
61676;BME280;47574;52.090;5.244;2023-01-10T08:28:42;101684.0;;;11.11;58.19
61676;BME280;47574;52.090;5.244;2023-01-10T08:30:18;101686.0;;;11.22;58.33
61676;BME280;47574;52.090;5.244;2023-01-10T08:33:31;101681.0;;;10.95;58.56
61676;BME280;47574;52.090;5.244;2023-01-10T08:35:08;101676.0;;;10.93;58.5
61676;BME280;47574;52.090;5.244;2023-01-10T08:36:48;101672.0;;;10.91;58.46
61676;BME280;47574;52.090;5.244;2023-01-10T08:40:01;101671.0;;;11.03;58.12
61676;BME280;47574;52.090;5.244;2023-01-10T08:41:38;101672.0;;;10.87;58.56
61676;BME280;47574;52.090;5.244;2023-01-10T08:43:15;101672.0;;;11.1;58.07
61676;BME280;47574;52.090;5.244;2023-01-10T08:44:51;101680.0;;;11.0;58.37
61676;BME280;47574;52.090;5.244;2023-01-10T08:48:04;101676.0;;;11.13;58.09
61676;BME280;47574;52.090;5.244;2023-01-10T08:49:41;101678.0;;;11.08;58.18
61676;BME280;47574;52.090;5.244;2023-01-10T08:51:17;101680.0;;;10.98;58.36
61676;BME280;47574;52.090;5.244;2023-01-10T08:54:33;101672.0;;;11.24;57.99
61676;BME280;47574;52.090;5.244;2023-01-10T08:56:09;101668.0;;;11.28;57.98
61676;BME280;47574;52.090;5.244;2023-01-10T08:57:46;101663.0;;;10.82;58.8
61676;BME280;47574;52.090;5.244;2023-01-10T08:59:22;101670.0;;;10.77;58.9
61676;BME280;47574;52.090;5.244;2023-01-10T09:02:38;101658.0;;;11.08;58.33
61676;BME280;47574;52.090;5.244;2023-01-10T09:04:15;101658.0;;;11.38;57.44
61676;BME280;47574;52.090;5.244;2023-01-10T09:05:51;101659.0;;;11.03;58.18
61676;BME280;47574;52.090;5.244;2023-01-10T09:09:03;101665.0;;;11.17;58.0
61676;BME280;47574;52.090;5.244;2023-01-10T09:10:40;101664.0;;;11.41;57.37
61676;BME280;47574;52.090;5.244;2023-01-10T09:13:20;101658.0;;;11.5;57.08
61676;BME280;47574;52.090;5.244;2023-01-10T09:14:56;101661.0;;;11.43;57.12
61676;BME280;47574;52.090;5.244;2023-01-10T09:16:32;101665.0;;;11.41;57.17
61676;BME280;47574;52.090;5.244;2023-01-10T09:19:48;101668.0;;;11.28;57.44
61676;BME280;47574;52.090;5.244;2023-01-10T09:21:24;101667.0;;;11.54;56.95
61676;BME280;47574;52.090;5.244;2023-01-10T09:23:04;101668.0;;;11.67;56.91
61676;BME280;47574;52.090;5.244;2023-01-10T09:24:43;101668.0;;;11.41;57.39
61676;BME280;47574;52.090;5.244;2023-01-10T09:27:57;101662.0;;;11.73;56.67
61676;BME280;47574;52.090;5.244;2023-01-10T09:29:33;101658.0;;;11.72;56.74
61676;BME280;47574;52.090;5.244;2023-01-10T09:31:11;101658.0;;;11.68;56.61
61676;BME280;47574;52.090;5.244;2023-01-10T09:36:01;101656.0;;;11.42;57.32
61676;BME280;47574;52.090;5.244;2023-01-10T09:37:38;101655.0;;;11.6;56.84
61676;BME280;47574;52.090;5.244;2023-01-10T09:39:14;101649.0;;;11.38;57.15
61676;BME280;47574;52.090;5.244;2023-01-10T09:42:58;101656.0;;;11.51;57.16
61676;BME280;47574;52.090;5.244;2023-01-10T09:44:48;101659.0;;;11.39;57.17
61676;BME280;47574;52.090;5.244;2023-01-10T09:46:36;101652.0;;;11.55;56.84
61676;BME280;47574;52.090;5.244;2023-01-10T09:48:23;101652.0;;;11.36;57.43
61676;BME280;47574;52.090;5.244;2023-01-10T09:50:10;101663.0;;;11.44;57.36
61676;BME280;47574;52.090;5.244;2023-01-10T09:51:55;101657.0;;;11.46;57.01
61676;BME280;47574;52.090;5.244;2023-01-10T09:55:20;101659.0;;;11.41;56.98
61676;BME280;47574;52.090;5.244;2023-01-10T09:57:02;101655.0;;;11.52;57.06
61676;BME280;47574;52.090;5.244;2023-01-10T09:58:39;101660.0;;;11.38;56.98
61676;BME280;47574;52.090;5.244;2023-01-10T10:00:20;101664.0;;;11.06;57.63
61676;BME280;47574;52.090;5.244;2023-01-10T10:03:54;101665.0;;;11.45;57.1
61676;BME280;47574;52.090;5.244;2023-01-10T10:05:36;101663.0;;;11.25;56.97
61676;BME280;47574;52.090;5.244;2023-01-10T10:07:13;101662.0;;;11.06;57.21
61676;BME280;47574;52.090;5.244;2023-01-10T10:08:51;101669.0;;;10.79;57.45
61676;BME280;47574;52.090;5.244;2023-01-10T10:12:25;101664.0;;;11.25;56.94
61676;BME280;47574;52.090;5.244;2023-01-10T10:14:13;101652.0;;;11.61;56.17
61676;BME280;47574;52.090;5.244;2023-01-10T10:16:03;101650.0;;;11.47;56.44
61676;BME280;47574;52.090;5.244;2023-01-10T10:17:50;101657.0;;;10.91;57.05
61676;BME280;47574;52.090;5.244;2023-01-10T10:19:38;101669.0;;;11.02;57.46
61676;BME280;47574;52.090;5.244;2023-01-10T10:21:27;101662.0;;;11.36;56.78
61676;BME280;47574;52.090;5.244;2023-01-10T10:23:22;101653.0;;;10.94;57.29
61676;BME280;47574;52.090;5.244;2023-01-10T10:26:58;101655.0;;;11.05;57.11
61676;BME280;47574;52.090;5.244;2023-01-10T10:29:01;101656.0;;;10.85;57.15
61676;BME280;47574;52.090;5.244;2023-01-10T10:31:56;101645.0;;;11.58;55.73
61676;BME280;47574;52.090;5.244;2023-01-10T10:33:52;101648.0;;;11.65;55.94
61676;BME280;47574;52.090;5.244;2023-01-10T10:37:21;101643.0;;;11.03;56.86
61676;BME280;47574;52.090;5.244;2023-01-10T10:39:00;101641.0;;;10.57;58.1
61676;BME280;47574;52.090;5.244;2023-01-10T10:40:42;101633.0;;;10.68;57.6
61676;BME280;47574;52.090;5.244;2023-01-10T10:42:19;101630.0;;;10.97;57.18
61676;BME280;47574;52.090;5.244;2023-01-10T10:45:42;101624.0;;;10.91;56.91
61676;BME280;47574;52.090;5.244;2023-01-10T10:47:22;101619.0;;;11.4;55.95
61676;BME280;47574;52.090;5.244;2023-01-10T10:49:00;101612.0;;;11.35;55.88
61676;BME280;47574;52.090;5.244;2023-01-10T10:50:49;101613.0;;;10.98;56.63
61676;BME280;47574;52.090;5.244;2023-01-10T10:52:32;101617.0;;;10.69;57.52
61676;BME280;47574;52.090;5.244;2023-01-10T10:55:48;101615.0;;;10.81;56.91
61676;BME280;47574;52.090;5.244;2023-01-10T10:57:27;101616.0;;;11.32;56.22
61676;BME280;47574;52.090;5.244;2023-01-10T10:59:05;101611.0;;;10.91;56.73
61676;BME280;47574;52.090;5.244;2023-01-10T11:02:22;101608.0;;;10.81;56.91
61676;BME280;47574;52.090;5.244;2023-01-10T11:04:01;101600.0;;;11.06;56.23
61676;BME280;47574;52.090;5.244;2023-01-10T11:05:44;101595.0;;;11.13;56.27
61676;BME280;47574;52.090;5.244;2023-01-10T11:07:21;101594.0;;;11.51;55.36
61676;BME280;47574;52.090;5.244;2023-01-10T11:10:41;101586.0;;;11.19;56.07
61676;BME280;47574;52.090;5.244;2023-01-10T11:12:30;101586.0;;;11.0;56.41
61676;BME280;47574;52.090;5.244;2023-01-10T11:14:08;101580.0;;;11.12;56.19
61676;BME280;47574;52.090;5.244;2023-01-10T11:15:48;101583.0;;;11.2;56.02
61676;BME280;47574;52.090;5.244;2023-01-10T11:19:12;101581.0;;;11.07;56.88
61676;BME280;47574;52.090;5.244;2023-01-10T11:20:58;101581.0;;;11.29;56.17
61676;BME280;47574;52.090;5.244;2023-01-10T11:22:39;101581.0;;;11.23;56.12
61676;BME280;47574;52.090;5.244;2023-01-10T11:24:24;101578.0;;;11.19;56.24